createdAt,value
2019-02-06T00:01:28.105Z,30.93
2019-02-06T00:04:09.059Z,27.67
2019-02-06T00:06:50.273Z,31.17
2019-02-06T00:09:31.428Z,29.00
2019-02-06T00:12:12.246Z,28.97
2019-02-06T00:14:53.659Z,29.63
2019-02-06T00:17:23.833Z,30.23
2019-02-06T00:20:12.455Z,29.57
2019-02-06T00:23:00.898Z,27.47
2019-02-06T00:25:50.207Z,31.10
2019-02-06T00:28:38.663Z,29.87
2019-02-06T00:31:07.906Z,28.60
2019-02-06T00:33:56.362Z,29.87
2019-02-06T00:36:37.782Z,30.30
2019-02-06T00:39:19.170Z,28.10
2019-02-06T00:41:58.610Z,29.33
2019-02-06T00:44:39.280Z,28.23
2019-02-06T00:47:20.738Z,29.57
2019-02-06T00:50:01.528Z,29.07
2019-02-06T00:52:42.901Z,34.07
2019-02-06T00:55:24.343Z,32.57
2019-02-06T00:58:05.060Z,30.50
2019-02-06T01:00:45.597Z,31.07
2019-02-06T01:03:26.351Z,31.57
2019-02-06T01:06:07.014Z,32.03
2019-02-06T01:08:47.953Z,31.10
2019-02-06T01:11:27.422Z,32.93
2019-02-06T01:14:08.671Z,29.73
2019-02-06T01:17:17.937Z,31.77
2019-02-06T01:20:06.546Z,30.33
2019-02-06T01:22:48.949Z,33.93
2019-02-06T01:25:29.657Z,32.20
2019-02-06T01:28:11.236Z,33.30
2019-02-06T01:31:11.687Z,34.10
2019-02-06T01:33:53.123Z,33.10
2019-02-06T01:36:34.721Z,35.23
2019-02-06T01:39:15.453Z,31.27
2019-02-06T01:41:56.286Z,33.80
2019-02-06T01:44:37.404Z,36.00
2019-02-06T01:47:17.020Z,34.23
2019-02-06T01:49:58.324Z,37.50
2019-02-06T01:52:39.543Z,36.00
2019-02-06T01:55:20.912Z,34.73
2019-02-06T01:58:02.217Z,37.53
2019-02-06T02:00:31.487Z,35.33
2019-02-06T02:03:19.889Z,36.30
2019-02-06T02:06:08.260Z,36.47
2019-02-06T02:11:43.225Z,38.23
2019-02-06T02:14:23.905Z,35.80
2019-02-06T02:17:05.365Z,34.93
2019-02-06T02:19:46.773Z,34.33
2019-02-06T02:22:16.027Z,36.47
2019-02-06T02:25:06.161Z,40.63
2019-02-06T02:30:48.503Z,45.10
2019-02-06T02:33:17.835Z,41.33
2019-02-06T02:35:47.712Z,40.30
2019-02-06T02:38:36.136Z,42.73
2019-02-06T02:41:16.832Z,42.50
2019-02-06T02:43:57.980Z,46.90
2019-02-06T02:46:39.296Z,44.53
2019-02-06T02:49:20.947Z,46.53
2019-02-06T02:52:01.734Z,44.53
2019-02-06T02:54:41.288Z,48.47
2019-02-06T02:57:22.485Z,48.80
2019-02-06T03:00:03.219Z,46.97
2019-02-06T03:03:03.221Z,49.10
2019-02-06T03:05:44.451Z,55.43
2019-02-06T03:08:25.888Z,52.17
2019-02-06T03:11:05.549Z,52.40
2019-02-06T03:13:53.876Z,60.43
2019-02-06T03:16:35.349Z,58.70
2019-02-06T03:19:16.338Z,70.80
2019-02-06T03:21:57.514Z,71.63
2019-02-06T03:24:38.403Z,73.83
2019-02-06T03:27:07.653Z,71.00
2019-02-06T03:29:56.005Z,83.83
2019-02-06T03:32:36.817Z,85.03
2019-02-06T03:35:17.689Z,82.60
2019-02-06T03:37:58.366Z,87.57
2019-02-06T03:40:37.947Z,89.47
2019-02-06T03:43:08.991Z,85.13
2019-02-06T03:45:57.410Z,92.57
2019-02-06T03:48:45.971Z,87.43
2019-02-06T03:51:34.459Z,86.63
2019-02-06T03:54:22.952Z,93.10
2019-02-06T03:57:11.690Z,90.13
2019-02-06T04:00:00.139Z,85.57
2019-02-06T04:02:42.896Z,86.80
2019-02-06T04:05:24.112Z,90.30
2019-02-06T04:08:05.445Z,101.27
2019-02-06T04:10:46.605Z,92.20
2019-02-06T04:13:28.082Z,101.30
2019-02-06T04:16:09.136Z,104.73
2019-02-06T04:18:50.208Z,107.40
2019-02-06T04:21:31.177Z,101.93
2019-02-06T04:24:11.863Z,100.87
2019-02-06T04:26:53.316Z,110.87
2019-02-06T04:29:34.150Z,112.97
2019-02-06T04:32:15.625Z,113.33
2019-02-06T04:34:57.274Z,104.93
2019-02-06T04:37:38.567Z,110.83
2019-02-06T04:40:19.687Z,102.03
2019-02-06T04:43:01.131Z,95.00
2019-02-06T04:45:42.079Z,56.67
2019-02-06T04:48:22.806Z,119.50
2019-02-06T04:51:04.330Z,128.70
2019-02-06T04:53:45.392Z,133.93
2019-02-06T04:56:28.901Z,130.60
2019-02-06T04:59:10.339Z,147.20
2019-02-06T05:01:51.152Z,150.37
2019-02-06T05:04:32.700Z,166.47
2019-02-06T05:07:19.415Z,171.40
2019-02-06T05:10:02.992Z,182.93
2019-02-06T05:12:44.064Z,194.77
2019-02-06T05:15:32.588Z,201.37
2019-02-06T05:18:13.126Z,196.37
2019-02-06T05:26:51.226Z,218.30
2019-02-06T05:29:32.182Z,203.03
2019-02-06T05:32:13.671Z,201.03
2019-02-06T05:34:55.101Z,218.30
2019-02-06T05:37:36.416Z,227.17
2019-02-06T05:40:17.833Z,243.13
2019-02-06T05:42:59.341Z,234.90
2019-02-06T05:45:39.911Z,218.37
2019-02-06T05:48:21.357Z,236.50
2019-02-06T05:51:02.756Z,233.27
2019-02-06T05:53:43.454Z,222.33
2019-02-06T05:56:24.437Z,229.97
2019-02-06T05:59:05.709Z,235.70
2019-02-06T06:01:46.759Z,234.57
2019-02-06T06:04:28.169Z,227.97
2019-02-06T06:06:57.575Z,225.73
2019-02-06T06:09:45.839Z,225.10
2019-02-06T06:12:34.232Z,240.80
2019-02-06T06:15:15.443Z,212.97
2019-02-06T06:17:55.974Z,219.63
2019-02-06T06:20:36.931Z,209.63
2019-02-06T06:23:17.492Z,222.67
2019-02-06T06:25:59.085Z,225.53
2019-02-06T06:28:39.662Z,215.57
2019-02-06T06:31:20.616Z,219.90
2019-02-06T06:34:01.505Z,200.10
2019-02-06T06:36:42.798Z,184.83
2019-02-06T06:39:23.867Z,198.03
2019-02-06T06:42:04.643Z,199.03
2019-02-06T06:44:45.495Z,201.57
2019-02-06T06:47:26.764Z,200.00
2019-02-06T06:50:08.009Z,196.60
2019-02-06T06:55:36.638Z,187.70
2019-02-06T06:58:24.979Z,175.33
2019-02-06T07:01:07.325Z,209.23
2019-02-06T07:03:49.327Z,183.93
2019-02-06T07:06:30.077Z,177.87
2019-02-06T07:09:18.761Z,179.23
2019-02-06T07:12:07.499Z,174.07
2019-02-06T07:14:48.219Z,147.13
2019-02-06T07:17:29.665Z,158.07
2019-02-06T07:20:10.895Z,170.80
2019-02-06T07:22:52.798Z,217.72
2019-02-06T07:25:34.042Z,221.70
2019-02-06T07:28:15.411Z,241.03
2019-02-06T07:30:56.800Z,246.90
2019-02-06T07:33:40.549Z,235.10
2019-02-06T07:36:21.384Z,259.00
2019-02-06T07:39:10.124Z,248.93
2019-02-06T07:44:45.872Z,253.47
2019-02-06T07:47:26.955Z,268.70
2019-02-06T07:50:08.172Z,242.13
2019-02-06T07:52:56.529Z,242.60
2019-02-06T07:55:45.953Z,258.17
2019-02-06T07:58:26.603Z,251.97
2019-02-06T08:01:07.361Z,258.03
2019-02-06T08:03:48.967Z,244.23
2019-02-06T08:06:30.513Z,266.20
2019-02-06T08:09:11.859Z,258.37
2019-02-06T08:11:53.243Z,272.80
2019-02-06T08:14:34.359Z,267.30
2019-02-06T08:17:15.074Z,254.63
2019-02-06T08:19:56.384Z,266.43
2019-02-06T08:22:27.759Z,267.57
2019-02-06T08:30:46.068Z,281.10
2019-02-06T08:33:27.144Z,284.63
2019-02-06T08:36:08.388Z,297.37
2019-02-06T08:38:47.988Z,292.77
2019-02-06T08:41:30.940Z,276.77
2019-02-06T08:44:12.086Z,283.90
2019-02-06T08:46:42.184Z,263.50
2019-02-06T08:49:30.606Z,256.00
2019-02-06T08:52:19.084Z,260.27
2019-02-06T08:54:59.816Z,249.67
2019-02-06T08:57:40.868Z,250.83
2019-02-06T09:00:22.166Z,238.43
2019-02-06T09:03:03.756Z,230.97
2019-02-06T09:05:45.014Z,211.70
2019-02-06T09:08:26.296Z,239.97
2019-02-06T09:11:07.755Z,223.27
2019-02-06T09:13:48.337Z,214.87
2019-02-06T09:16:29.434Z,245.33
2019-02-06T09:19:10.763Z,229.87
2019-02-06T09:24:50.680Z,236.93
2019-02-06T09:27:31.963Z,230.60
2019-02-06T09:30:13.369Z,228.17
2019-02-06T09:36:06.468Z,204.53
2019-02-06T09:38:47.608Z,184.97
2019-02-06T09:41:28.191Z,189.77
2019-02-06T09:44:07.775Z,188.07
2019-02-06T09:46:48.998Z,173.20
2019-02-06T09:49:30.338Z,189.70
2019-02-06T09:52:11.757Z,171.90
2019-02-06T09:54:52.606Z,173.37
2019-02-06T09:57:35.558Z,164.23
2019-02-06T10:00:16.360Z,160.17
2019-02-06T10:02:57.764Z,145.57
2019-02-06T10:05:27.115Z,141.60
2019-02-06T10:08:15.396Z,129.83
2019-02-06T10:14:06.229Z,136.57
2019-02-06T10:16:47.546Z,123.83
2019-02-06T10:19:16.787Z,116.97
2019-02-06T10:22:05.313Z,126.97
2019-02-06T10:24:46.727Z,129.97
2019-02-06T10:27:28.329Z,126.57
2019-02-06T10:30:11.921Z,118.50
2019-02-06T10:32:43.601Z,126.07
2019-02-06T10:35:31.897Z,111.87
2019-02-06T10:38:20.385Z,109.40
2019-02-06T10:41:01.023Z,94.23
2019-02-06T10:43:42.265Z,100.53
2019-02-06T10:46:23.598Z,105.43
2019-02-06T10:49:04.619Z,87.40
2019-02-06T10:51:45.281Z,79.90
2019-02-06T10:54:25.839Z,81.50
2019-02-06T10:57:10.073Z,83.80
2019-02-06T10:59:49.645Z,78.33
2019-02-06T11:02:30.504Z,85.60
2019-02-06T11:05:11.319Z,80.27
2019-02-06T11:07:52.201Z,90.60
2019-02-06T11:10:33.286Z,99.57
2019-02-06T11:13:14.356Z,97.07
2019-02-06T11:15:55.027Z,101.37
2019-02-06T11:18:35.768Z,103.40
2019-02-06T11:21:17.196Z,98.57
2019-02-06T11:23:57.910Z,95.97
2019-02-06T11:26:38.848Z,70.67
2019-02-06T11:32:03.662Z,94.70
2019-02-06T11:34:52.042Z,96.50
2019-02-06T11:37:33.447Z,100.37
2019-02-06T11:40:15.310Z,109.17
2019-02-06T11:42:56.346Z,97.17
2019-02-06T11:45:28.795Z,112.57
2019-02-06T11:48:17.061Z,111.73
2019-02-06T11:51:05.356Z,108.57
2019-02-06T11:53:46.825Z,107.67
2019-02-06T11:56:28.102Z,109.57
2019-02-06T11:58:57.565Z,113.13
2019-02-06T12:01:51.513Z,87.63
2019-02-06T12:04:32.351Z,51.40
2019-02-06T12:07:13.911Z,86.43
2019-02-06T12:09:55.124Z,83.07
2019-02-06T12:12:36.163Z,78.30
2019-02-06T12:15:17.210Z,86.03
2019-02-06T12:17:58.827Z,86.20
2019-02-06T12:20:40.494Z,78.33
2019-02-06T12:23:31.892Z,81.67
2019-02-06T12:26:03.857Z,80.03
2019-02-06T12:28:45.261Z,80.63
2019-02-06T12:31:26.436Z,74.67
2019-02-06T12:34:07.475Z,76.07
2019-02-06T12:36:48.404Z,76.40
2019-02-06T12:39:29.774Z,65.13
2019-02-06T12:42:11.276Z,62.97
2019-02-06T12:44:52.182Z,62.70
2019-02-06T12:50:31.701Z,65.10
2019-02-06T12:53:12.917Z,59.33
2019-02-06T12:55:54.136Z,61.33
2019-02-06T12:58:35.245Z,62.63
2019-02-06T13:01:16.326Z,63.97
2019-02-06T13:03:57.275Z,63.53
2019-02-06T13:06:38.703Z,68.70
2019-02-06T13:09:28.626Z,69.13
2019-02-06T13:12:09.759Z,66.20
2019-02-06T13:14:50.693Z,66.77
2019-02-06T13:17:31.404Z,64.50
2019-02-06T13:20:12.231Z,58.67
2019-02-06T13:23:00.891Z,64.37
2019-02-06T13:25:49.313Z,50.57
2019-02-06T13:28:30.372Z,60.93
2019-02-06T13:31:11.920Z,59.77
2019-02-06T13:33:52.996Z,59.50
2019-02-06T13:36:33.532Z,60.60
2019-02-06T13:39:14.288Z,63.00
2019-02-06T13:41:55.436Z,67.03
2019-02-06T13:44:36.188Z,70.97
2019-02-06T13:47:16.658Z,62.70
2019-02-06T13:49:58.088Z,76.97
2019-02-06T13:52:39.284Z,75.67
2019-02-06T13:55:20.824Z,70.83
2019-02-06T13:58:01.800Z,64.07
2019-02-06T14:00:43.687Z,63.07
2019-02-06T14:03:24.797Z,57.93
2019-02-06T14:06:06.335Z,65.63
2019-02-06T14:08:46.919Z,68.93
2019-02-06T14:11:27.793Z,76.50
2019-02-06T14:14:09.325Z,77.03
2019-02-06T14:16:57.743Z,76.77
2019-02-06T14:19:38.991Z,77.40
2019-02-06T14:22:20.653Z,72.73
2019-02-06T14:25:01.954Z,75.27
2019-02-06T14:27:43.659Z,82.70
2019-02-06T14:30:51.739Z,70.67
2019-02-06T14:33:44.258Z,68.73
2019-02-06T14:36:51.745Z,54.53
2019-02-06T14:39:32.816Z,63.33
2019-02-06T14:42:13.531Z,86.67
2019-02-06T14:44:54.108Z,82.50
2019-02-06T14:47:35.429Z,79.77
2019-02-06T14:50:16.897Z,73.53
2019-02-06T14:52:58.319Z,70.07
2019-02-06T14:55:39.796Z,68.17
2019-02-06T14:58:21.090Z,66.17
2019-02-06T15:01:02.406Z,72.90
2019-02-06T15:03:43.895Z,72.30
2019-02-06T15:06:24.584Z,63.43
2019-02-06T15:09:05.635Z,71.70
2019-02-06T15:11:46.833Z,70.23
2019-02-06T15:14:28.049Z,62.50
2019-02-06T15:17:08.898Z,71.93
2019-02-06T15:19:48.163Z,72.17
2019-02-06T15:22:55.535Z,78.90
2019-02-06T15:25:36.573Z,84.83
2019-02-06T15:28:17.783Z,84.93
2019-02-06T15:30:58.879Z,87.73
2019-02-06T15:33:40.329Z,80.23
2019-02-06T15:36:21.753Z,91.33
2019-02-06T15:39:04.771Z,84.93
2019-02-06T15:41:46.168Z,83.03
2019-02-06T15:44:27.558Z,83.80
2019-02-06T15:47:08.821Z,79.80
2019-02-06T15:50:26.228Z,78.53
2019-02-06T15:52:59.536Z,71.97
2019-02-06T15:55:43.450Z,75.27
2019-02-06T15:58:24.400Z,72.80
2019-02-06T16:01:05.398Z,74.93
2019-02-06T16:04:05.662Z,82.10
2019-02-06T16:06:51.098Z,83.10
2019-02-06T16:09:32.500Z,82.70
2019-02-06T16:12:13.932Z,80.30
2019-02-06T16:14:57.464Z,84.03
2019-02-06T16:17:38.654Z,82.67
2019-02-06T16:20:46.777Z,82.37
2019-02-06T16:23:27.374Z,82.77
2019-02-06T16:26:35.116Z,77.83
2019-02-06T16:29:42.607Z,72.23
2019-02-06T16:32:24.011Z,69.07
2019-02-06T16:35:05.418Z,70.77
2019-02-06T16:37:46.679Z,73.90
2019-02-06T16:40:28.115Z,72.87
2019-02-06T16:43:09.173Z,78.40
2019-02-06T16:45:50.515Z,73.67
2019-02-06T16:48:58.072Z,73.37
2019-02-06T16:55:06.977Z,79.77
2019-02-06T16:58:00.109Z,82.93
2019-02-06T17:00:42.723Z,90.17
2019-02-06T17:03:24.102Z,85.90
2019-02-06T17:06:05.272Z,78.27
2019-02-06T17:08:47.620Z,78.47
2019-02-06T17:11:28.247Z,83.73
2019-02-06T17:14:09.714Z,79.27
2019-02-06T17:17:01.024Z,81.93
2019-02-06T17:19:42.233Z,79.07
2019-02-06T17:22:23.414Z,72.70
2019-02-06T17:25:04.700Z,86.13
2019-02-06T17:27:46.238Z,83.43
2019-02-06T17:30:27.419Z,89.00
2019-02-06T17:33:08.448Z,81.50
2019-02-06T17:36:16.285Z,81.27
2019-02-06T17:38:57.277Z,85.97
2019-02-06T17:41:38.742Z,82.93
2019-02-06T17:44:46.333Z,85.77
2019-02-06T17:47:27.579Z,83.73
2019-02-06T17:50:08.907Z,88.87
2019-02-06T17:53:16.397Z,87.07
2019-02-06T17:55:58.219Z,89.60
2019-02-06T17:58:39.772Z,82.83
2019-02-06T18:01:21.819Z,81.13
2019-02-06T18:04:03.379Z,89.43
2019-02-06T18:06:44.543Z,89.53
2019-02-06T18:09:26.168Z,94.40
2019-02-06T18:12:07.647Z,84.73
2019-02-06T18:14:48.943Z,130.40
2019-02-06T18:17:31.054Z,126.23
2019-02-06T18:20:11.712Z,126.93
2019-02-06T18:22:52.992Z,135.30
2019-02-06T18:25:34.328Z,134.87
2019-02-06T18:28:15.691Z,131.43
2019-02-06T18:33:39.134Z,133.97
2019-02-06T18:36:29.276Z,132.50
2019-02-06T18:39:10.840Z,126.57
2019-02-06T18:41:51.883Z,130.60
2019-02-06T18:44:32.709Z,134.90
2019-02-06T18:47:13.667Z,120.20
2019-02-06T18:49:54.980Z,121.67
2019-02-06T18:52:36.520Z,106.00
2019-02-06T18:55:06.277Z,121.17
2019-02-06T18:57:55.021Z,129.23
2019-02-06T19:00:35.811Z,133.20
2019-02-06T19:03:17.274Z,144.13
2019-02-06T19:05:58.788Z,131.97
2019-02-06T19:08:40.333Z,139.73
2019-02-06T19:11:21.397Z,150.23
2019-02-06T19:14:02.909Z,139.17
2019-02-06T19:16:44.089Z,153.57
2019-02-06T19:19:25.913Z,145.40
2019-02-06T19:22:07.258Z,160.10
2019-02-06T19:24:48.744Z,152.80
2019-02-06T19:27:30.080Z,148.73
2019-02-06T19:30:11.467Z,146.07
2019-02-06T19:32:52.590Z,151.67
2019-02-06T19:35:34.001Z,139.57
2019-02-06T19:38:16.035Z,138.13
2019-02-06T19:40:56.840Z,142.43
2019-02-06T19:43:38.002Z,143.40
2019-02-06T19:49:14.820Z,136.47
2019-02-06T19:51:55.941Z,145.37
2019-02-06T19:54:37.423Z,147.97
2019-02-06T19:57:18.825Z,149.60
2019-02-06T19:59:59.900Z,145.00
2019-02-06T20:02:40.639Z,142.77
2019-02-06T20:05:22.084Z,135.33
2019-02-06T20:08:03.679Z,136.27
2019-02-06T20:10:44.753Z,121.47
2019-02-06T20:13:26.248Z,112.90
2019-02-06T20:16:07.451Z,115.27
2019-02-06T20:18:48.744Z,115.73
2019-02-06T20:21:29.458Z,116.90
2019-02-06T20:24:11.194Z,126.27
2019-02-06T20:26:52.581Z,112.43
2019-02-06T20:29:34.311Z,140.40
2019-02-06T20:32:15.206Z,152.87
2019-02-06T20:34:56.289Z,161.07
2019-02-06T20:37:37.122Z,161.83
2019-02-06T20:40:18.486Z,170.03
2019-02-06T20:42:47.748Z,179.90
2019-02-06T20:45:36.277Z,178.80
2019-02-06T20:48:17.007Z,156.50
2019-02-06T20:50:58.383Z,169.00
2019-02-06T20:53:39.866Z,175.07
2019-02-06T20:56:20.936Z,175.57
2019-02-06T20:59:02.571Z,150.80
2019-02-06T21:01:31.900Z,182.07
2019-02-06T21:04:20.348Z,177.23
2019-02-06T21:07:10.442Z,192.10
2019-02-06T21:09:51.328Z,192.63
2019-02-06T21:12:32.610Z,199.57
2019-02-06T21:15:13.825Z,196.53
2019-02-06T21:17:54.533Z,194.47
2019-02-06T21:20:35.301Z,199.33
2019-02-06T21:23:16.439Z,201.43
2019-02-06T21:25:57.047Z,185.93
2019-02-06T21:28:37.991Z,173.00
2019-02-06T21:31:19.159Z,154.50
2019-02-06T21:33:59.881Z,157.07
2019-02-06T21:36:40.653Z,153.83
2019-02-06T21:39:22.126Z,146.97
2019-02-06T21:41:51.441Z,116.87
2019-02-06T21:44:41.858Z,152.87
2019-02-06T21:47:24.917Z,181.97
2019-02-06T21:50:05.621Z,179.17
2019-02-06T21:52:46.776Z,187.53
2019-02-06T21:58:41.016Z,140.33
2019-02-06T22:01:22.183Z,136.97
2019-02-06T22:04:03.568Z,146.67
2019-02-06T22:06:44.850Z,157.00
2019-02-06T22:09:26.180Z,129.23
2019-02-06T22:12:07.624Z,173.90
2019-02-06T22:14:49.002Z,185.43
2019-02-06T22:17:30.319Z,189.20
2019-02-06T22:20:11.504Z,189.97
2019-02-06T22:22:52.360Z,152.53
2019-02-06T22:25:33.381Z,160.57
2019-02-06T22:28:14.877Z,146.27
2019-02-06T22:30:55.805Z,129.63
2019-02-06T22:33:37.228Z,152.03
2019-02-06T22:36:17.969Z,159.43
2019-02-06T22:38:59.400Z,166.77
2019-02-06T22:41:40.685Z,167.30
2019-02-06T22:44:22.232Z,177.60
2019-02-06T22:47:03.551Z,150.17
2019-02-06T22:49:44.657Z,165.23
2019-02-06T22:52:25.946Z,154.70
2019-02-06T22:55:07.603Z,153.80
2019-02-06T22:57:49.080Z,135.17
2019-02-06T23:03:38.354Z,160.00
2019-02-06T23:09:16.540Z,158.20
2019-02-06T23:11:57.449Z,139.97
2019-02-06T23:14:38.560Z,125.77
2019-02-06T23:17:08.641Z,83.47
2019-02-06T23:22:40.662Z,131.13
2019-02-06T23:25:21.520Z,125.97
2019-02-06T23:28:02.946Z,128.30
2019-02-06T23:30:44.614Z,122.10
2019-02-06T23:33:25.444Z,117.37
2019-02-06T23:36:06.496Z,114.23
2019-02-06T23:38:49.863Z,107.30
2019-02-06T23:41:31.072Z,99.27
2019-02-06T23:44:12.374Z,103.50
2019-02-06T23:46:56.181Z,94.80
2019-02-06T23:49:37.159Z,105.70
2019-02-06T23:52:18.931Z,104.30
2019-02-06T23:54:48.259Z,101.93
